Terminal Aerodrome Forecast
Issued by NWS

Home | Current Version | Previous Version | Text Only | Print | Product List | Glossary On
Versions: 1 2 3 4 5 6 7 8 9 10 11 12 13 14 15
000
FTUS45 KCYS 251130
TAFLAR
TAF
KLAR 251130Z 2512/2612 VRB05KT P6SM OVC019
     FM251600 14012KT P6SM BKN250
     FM252100 11013KT P6SM VCTS SCT080CB BKN150
     FM260200 12009KT P6SM BKN150=

USA.gov is the U.S. government's official web portal to all federal, state and local government web resources and services.